createdAt,value
2022-10-07T00:01:04.073Z,7.12
2022-10-07T00:02:36.132Z,7.09
2022-10-07T00:04:08.114Z,7.04
2022-10-07T00:05:41.179Z,7.03
2022-10-07T00:07:15.097Z,6.98
2022-10-07T00:08:49.176Z,6.94
2022-10-07T00:10:21.157Z,6.89
2022-10-07T00:11:53.149Z,6.87
2022-10-07T00:13:25.207Z,6.84
2022-10-07T00:14:57.249Z,6.83
2022-10-07T00:16:32.525Z,6.82
2022-10-07T00:18:04.714Z,6.79
2022-10-07T00:19:36.785Z,6.79
2022-10-07T00:21:14.117Z,6.84
2022-10-07T00:22:46.129Z,6.76
2022-10-07T00:24:18.111Z,6.77
2022-10-07T00:25:50.123Z,6.73
2022-10-07T00:27:22.097Z,6.71
2022-10-07T00:28:54.312Z,6.70
2022-10-07T00:30:26.379Z,6.69
2022-10-07T00:31:58.687Z,6.67
2022-10-07T00:33:32.016Z,6.67
2022-10-07T00:35:04.382Z,6.65
2022-10-07T00:36:37.753Z,6.64
2022-10-07T00:38:09.808Z,6.58
2022-10-07T00:39:42.210Z,6.59
2022-10-07T00:41:19.636Z,6.60
2022-10-07T00:42:51.606Z,6.55
2022-10-07T00:44:32.823Z,6.61
2022-10-07T00:46:29.877Z,6.59
2022-10-07T00:48:01.950Z,6.60
2022-10-07T00:49:41.019Z,6.62
2022-10-07T00:51:16.673Z,6.66
2022-10-07T00:52:53.256Z,6.74
2022-10-07T00:54:25.407Z,6.72
2022-10-07T00:55:58.333Z,6.67
2022-10-07T00:57:32.304Z,6.65
2022-10-07T00:59:06.867Z,6.64
2022-10-07T01:00:39.987Z,6.60
2022-10-07T01:02:12.153Z,6.58
2022-10-07T01:03:44.466Z,6.53
2022-10-07T01:05:16.745Z,6.48
2022-10-07T01:06:48.729Z,6.44
2022-10-07T01:08:21.274Z,6.42
2022-10-07T01:09:54.319Z,6.39
2022-10-07T01:12:08.386Z,6.39
2022-10-07T01:13:49.954Z,6.31
2022-10-07T01:15:43.269Z,6.27
2022-10-07T01:17:22.545Z,6.22
2022-10-07T01:19:10.277Z,6.24
2022-10-07T01:21:01.377Z,6.23
2022-10-07T01:23:02.246Z,6.22
2022-10-07T01:24:49.199Z,6.22
2022-10-07T01:26:47.878Z,6.22
2022-10-07T01:28:32.519Z,6.20
2022-10-07T01:30:07.036Z,6.17
2022-10-07T01:32:08.403Z,6.22
2022-10-07T01:33:41.376Z,6.18
2022-10-07T01:36:52.955Z,6.14
2022-10-07T01:38:26.720Z,6.15
2022-10-07T01:40:02.747Z,6.14
2022-10-07T01:41:37.161Z,6.11
2022-10-07T01:43:09.341Z,6.09
2022-10-07T01:44:41.713Z,6.16
2022-10-07T01:46:18.650Z,6.17
2022-10-07T01:47:51.731Z,6.13
2022-10-07T01:49:23.950Z,6.08
2022-10-07T01:50:57.402Z,6.11
2022-10-07T01:52:37.903Z,6.17
2022-10-07T01:54:27.993Z,6.13
2022-10-07T01:56:10.650Z,6.06
2022-10-07T01:57:56.812Z,6.04
2022-10-07T01:59:47.381Z,6.06
2022-10-07T02:01:25.397Z,6.05
2022-10-07T02:03:34.204Z,6.08
2022-10-07T02:05:20.143Z,6.08
2022-10-07T02:07:18.478Z,6.07
2022-10-07T02:08:53.094Z,6.03
2022-10-07T02:10:32.041Z,5.99
2022-10-07T02:12:25.550Z,5.99
2022-10-07T02:14:01.223Z,5.95
2022-10-07T02:15:40.281Z,5.96
2022-10-07T02:17:17.825Z,5.91
2022-10-07T02:18:51.978Z,5.91
2022-10-07T02:20:27.843Z,5.88
2022-10-07T02:22:03.053Z,5.85
2022-10-07T02:23:38.229Z,5.86
2022-10-07T02:25:11.743Z,5.81
2022-10-07T02:26:46.117Z,5.83
2022-10-07T02:28:20.852Z,5.82
2022-10-07T02:29:57.718Z,5.86
2022-10-07T02:31:31.262Z,5.91
2022-10-07T02:33:05.638Z,5.93
2022-10-07T02:34:38.769Z,5.93
2022-10-07T02:36:17.078Z,5.93
2022-10-07T02:37:50.250Z,5.90
2022-10-07T02:41:09.179Z,5.83
2022-10-07T02:42:55.807Z,5.84
2022-10-07T02:44:41.582Z,5.83
2022-10-07T02:46:17.357Z,5.79
2022-10-07T02:47:52.956Z,5.77
2022-10-07T02:49:26.765Z,5.75
2022-10-07T02:51:01.426Z,5.81
2022-10-07T02:52:33.648Z,5.81
2022-10-07T02:54:05.700Z,5.81
2022-10-07T02:55:37.941Z,5.78
2022-10-07T02:57:11.574Z,5.76
2022-10-07T02:58:46.188Z,5.74
2022-10-07T03:00:19.321Z,5.72
2022-10-07T03:01:52.864Z,5.71
2022-10-07T03:03:26.023Z,5.65
2022-10-07T03:04:58.628Z,5.63
2022-10-07T03:06:30.794Z,5.60
2022-10-07T03:08:09.254Z,5.62
2022-10-07T03:09:42.334Z,5.60
2022-10-07T03:11:14.317Z,5.56
2022-10-07T03:12:46.340Z,5.54
2022-10-07T03:15:52.314Z,5.47
2022-10-07T03:17:24.666Z,5.51
2022-10-07T03:18:56.677Z,5.54
2022-10-07T03:20:30.443Z,5.55
2022-10-07T03:22:03.099Z,5.57
2022-10-07T03:23:35.306Z,5.65
2022-10-07T03:25:07.714Z,5.65
2022-10-07T03:26:40.199Z,5.62
2022-10-07T03:28:12.300Z,5.59
2022-10-07T03:29:44.418Z,5.56
2022-10-07T03:31:16.589Z,5.55
2022-10-07T03:32:50.296Z,5.54
2022-10-07T03:34:23.899Z,5.52
2022-10-07T03:35:55.682Z,5.55
2022-10-07T03:37:30.103Z,5.51
2022-10-07T03:39:02.036Z,5.44
2022-10-07T03:40:34.869Z,5.43
2022-10-07T03:42:06.861Z,5.42
2022-10-07T03:43:38.826Z,5.38
2022-10-07T03:45:11.111Z,5.38
2022-10-07T03:46:43.130Z,5.37
2022-10-07T03:49:50.236Z,5.38
2022-10-07T03:51:22.255Z,5.37
2022-10-07T03:52:54.309Z,5.37
2022-10-07T03:54:26.665Z,5.36
2022-10-07T03:55:58.758Z,5.36
2022-10-07T03:57:49.355Z,5.37
2022-10-07T03:59:21.408Z,5.39
2022-10-07T04:00:53.664Z,5.37
2022-10-07T04:02:26.157Z,5.36
2022-10-07T04:04:00.727Z,5.33
2022-10-07T04:05:32.644Z,5.30
2022-10-07T04:07:04.701Z,5.29
2022-10-07T04:08:36.893Z,5.24
2022-10-07T04:10:09.801Z,5.25
2022-10-07T04:11:42.426Z,5.30
2022-10-07T04:13:14.481Z,5.32
2022-10-07T04:14:46.600Z,5.34
2022-10-07T04:16:18.882Z,5.35
2022-10-07T04:19:23.796Z,5.36
2022-10-07T04:21:00.337Z,5.36
2022-10-07T04:22:32.389Z,5.27
2022-10-07T04:24:04.462Z,5.27
2022-10-07T04:25:38.021Z,5.25
2022-10-07T04:27:09.864Z,5.32
2022-10-07T04:28:42.846Z,5.28
2022-10-07T04:30:16.028Z,5.32
2022-10-07T04:31:48.244Z,5.30
2022-10-07T04:33:22.273Z,5.36
2022-10-07T04:34:54.269Z,5.35
2022-10-07T04:36:27.591Z,5.34
2022-10-07T04:37:59.744Z,5.39
2022-10-07T04:39:49.271Z,5.38
2022-10-07T04:41:23.751Z,5.40
2022-10-07T04:43:14.437Z,5.40
2022-10-07T04:44:46.458Z,5.39
2022-10-07T04:46:18.675Z,5.38
2022-10-07T04:47:53.855Z,5.39
2022-10-07T04:49:26.466Z,5.39
2022-10-07T04:51:09.387Z,5.46
2022-10-07T04:52:42.828Z,5.44
2022-10-07T04:54:14.922Z,5.46
2022-10-07T04:55:52.114Z,5.51
2022-10-07T04:57:24.168Z,5.50
2022-10-07T04:58:56.421Z,5.52
2022-10-07T05:00:29.569Z,5.56
2022-10-07T05:02:02.308Z,5.56
2022-10-07T05:03:36.570Z,5.65
2022-10-07T05:05:10.046Z,5.69
2022-10-07T05:06:42.074Z,5.78
2022-10-07T05:08:15.821Z,5.78
2022-10-07T05:09:47.854Z,5.81
2022-10-07T05:11:19.852Z,5.87
2022-10-07T05:12:55.936Z,5.96
2022-10-07T05:14:28.408Z,5.99
2022-10-07T05:16:02.174Z,6.11
2022-10-07T05:19:06.954Z,6.23
2022-10-07T05:20:41.044Z,6.38
2022-10-07T05:22:13.074Z,6.46
2022-10-07T05:23:45.530Z,6.54
2022-10-07T05:25:17.829Z,6.61
2022-10-07T05:26:51.223Z,6.72
2022-10-07T05:28:24.391Z,6.79
2022-10-07T05:29:58.349Z,6.84
2022-10-07T05:31:30.684Z,6.93
2022-10-07T05:33:03.208Z,6.99
2022-10-07T05:34:35.721Z,7.07
2022-10-07T05:36:09.312Z,7.13
2022-10-07T05:37:41.444Z,7.21
2022-10-07T05:39:13.523Z,7.30
2022-10-07T05:40:46.048Z,7.38
2022-10-07T05:42:18.478Z,7.47
2022-10-07T05:43:50.837Z,7.57
2022-10-07T05:45:22.877Z,7.66
2022-10-07T05:47:09.153Z,7.69
2022-10-07T05:48:41.908Z,7.88
2022-10-07T05:50:14.552Z,7.97
2022-10-07T05:51:46.634Z,8.04
2022-10-07T05:53:18.863Z,8.14
2022-10-07T05:54:52.178Z,8.21
2022-10-07T05:56:24.327Z,8.29
2022-10-07T05:57:56.437Z,8.36
2022-10-07T05:59:28.449Z,8.44
2022-10-07T06:01:10.161Z,8.58
2022-10-07T06:02:46.745Z,8.65
2022-10-07T06:04:20.159Z,8.72
2022-10-07T06:05:53.278Z,8.83
2022-10-07T06:07:29.314Z,8.93
2022-10-07T06:09:28.107Z,9.03
2022-10-07T06:11:22.927Z,9.16
2022-10-07T06:13:10.201Z,9.27
2022-10-07T06:14:42.429Z,9.41
2022-10-07T06:16:14.521Z,9.50
2022-10-07T06:17:47.556Z,9.57
2022-10-07T06:19:22.973Z,9.71
2022-10-07T06:21:00.181Z,9.77
2022-10-07T06:22:32.200Z,9.82
2022-10-07T06:24:04.393Z,9.90
2022-10-07T06:25:36.377Z,9.97
2022-10-07T06:27:08.866Z,10.03
2022-10-07T06:28:42.537Z,10.09
2022-10-07T06:30:14.746Z,10.16
2022-10-07T06:31:46.896Z,10.23
2022-10-07T06:33:19.510Z,10.32
2022-10-07T06:34:52.101Z,10.40
2022-10-07T06:36:24.438Z,10.49
2022-10-07T06:37:56.586Z,10.58
2022-10-07T06:39:29.008Z,10.67
2022-10-07T06:41:02.280Z,10.81
2022-10-07T06:42:34.537Z,10.87
2022-10-07T06:44:07.217Z,10.96
2022-10-07T06:45:39.660Z,11.02
2022-10-07T06:47:23.075Z,11.17
2022-10-07T06:48:55.492Z,11.18
2022-10-07T06:50:27.713Z,11.24
2022-10-07T06:51:59.977Z,11.32
2022-10-07T06:53:32.874Z,11.41
2022-10-07T06:55:05.414Z,11.49
2022-10-07T06:56:38.074Z,11.58
2022-10-07T06:58:11.788Z,11.63
2022-10-07T06:59:44.621Z,11.71
2022-10-07T07:01:17.295Z,11.78
2022-10-07T07:02:49.652Z,11.86
2022-10-07T07:04:22.180Z,11.95
2022-10-07T07:05:57.770Z,12.03
2022-10-07T07:07:30.127Z,12.12
2022-10-07T07:09:05.027Z,12.18
2022-10-07T07:10:38.873Z,12.29
2022-10-07T07:12:11.086Z,12.34
2022-10-07T07:13:45.359Z,12.43
2022-10-07T07:15:18.400Z,12.50
2022-10-07T07:16:50.710Z,12.59
2022-10-07T07:18:23.251Z,12.64
2022-10-07T07:19:55.953Z,12.72
2022-10-07T07:21:33.897Z,12.82
2022-10-07T07:23:08.279Z,12.90
2022-10-07T07:24:40.627Z,12.95
2022-10-07T07:26:13.561Z,13.03
2022-10-07T07:27:50.299Z,13.08
2022-10-07T07:29:24.908Z,13.16
2022-10-07T07:30:57.276Z,13.25
2022-10-07T07:32:32.612Z,13.32
2022-10-07T07:34:11.864Z,13.46
2022-10-07T07:35:45.334Z,13.52
2022-10-07T07:37:17.828Z,13.68
2022-10-07T07:38:54.875Z,13.75
2022-10-07T07:40:27.306Z,13.79
2022-10-07T07:41:59.625Z,13.85
2022-10-07T07:43:32.290Z,13.90
2022-10-07T07:45:04.631Z,14.00
2022-10-07T07:46:42.113Z,14.11
2022-10-07T07:48:15.749Z,14.15
2022-10-07T07:49:50.588Z,14.26
2022-10-07T07:51:23.136Z,14.31
2022-10-07T07:52:57.522Z,14.43
2022-10-07T07:54:30.070Z,14.51
2022-10-07T07:56:03.585Z,14.60
2022-10-07T07:57:36.446Z,14.66
2022-10-07T07:59:09.092Z,14.72
2022-10-07T08:00:41.691Z,14.78
2022-10-07T08:02:14.075Z,14.81
2022-10-07T08:03:47.979Z,14.94
2022-10-07T08:05:23.861Z,15.00
2022-10-07T08:06:56.660Z,15.08
2022-10-07T08:08:30.584Z,15.15
2022-10-07T08:10:03.013Z,15.18
2022-10-07T08:11:35.592Z,15.27
2022-10-07T08:13:08.538Z,15.35
2022-10-07T08:14:41.681Z,15.45
2022-10-07T08:16:18.506Z,15.52
2022-10-07T08:17:50.588Z,15.57
2022-10-07T08:19:22.726Z,15.65
2022-10-07T08:21:00.220Z,15.74
2022-10-07T08:22:32.276Z,15.79
2022-10-07T08:24:06.115Z,15.83
2022-10-07T08:25:38.601Z,15.85
2022-10-07T08:27:10.972Z,15.89
2022-10-07T08:28:43.193Z,15.95
2022-10-07T08:30:18.056Z,16.04
2022-10-07T08:31:50.439Z,16.09
2022-10-07T08:33:23.356Z,16.16
2022-10-07T08:34:58.195Z,16.20
2022-10-07T08:36:33.181Z,16.31
2022-10-07T08:38:05.397Z,16.34
2022-10-07T08:39:37.766Z,16.41
2022-10-07T08:41:10.293Z,16.47
2022-10-07T08:42:43.494Z,16.52
2022-10-07T08:44:18.150Z,16.55
2022-10-07T08:45:52.229Z,16.64
2022-10-07T08:47:28.226Z,16.69
2022-10-07T08:49:05.881Z,16.78
2022-10-07T08:52:25.948Z,16.92
2022-10-07T08:54:01.219Z,16.97
2022-10-07T08:55:44.283Z,17.01
2022-10-07T08:57:51.092Z,17.08
2022-10-07T08:59:34.382Z,17.17
2022-10-07T09:01:22.893Z,17.22
2022-10-07T09:03:10.226Z,17.26
2022-10-07T09:05:20.066Z,17.33
2022-10-07T09:07:25.428Z,17.37
2022-10-07T09:09:06.948Z,17.43
2022-10-07T09:10:43.231Z,17.48
2022-10-07T09:12:44.136Z,17.55
2022-10-07T09:14:19.161Z,17.55
2022-10-07T09:16:06.927Z,17.65
2022-10-07T09:17:44.454Z,17.67
2022-10-07T09:19:41.350Z,17.74
2022-10-07T09:21:17.618Z,17.78
2022-10-07T09:22:53.701Z,17.84
2022-10-07T09:24:30.752Z,17.88
2022-10-07T09:26:10.867Z,17.92
2022-10-07T09:27:43.481Z,17.91
2022-10-07T09:29:19.223Z,17.98
2022-10-07T09:30:51.612Z,18.00
2022-10-07T09:32:24.025Z,18.03
2022-10-07T09:33:56.575Z,18.07
2022-10-07T09:35:34.463Z,18.12
2022-10-07T09:37:22.821Z,18.17
2022-10-07T09:38:55.214Z,18.18
2022-10-07T09:41:06.425Z,18.25
2022-10-07T09:42:43.672Z,18.28
2022-10-07T09:44:15.858Z,18.32
2022-10-07T09:45:48.287Z,18.35
2022-10-07T09:47:23.672Z,18.40
2022-10-07T09:50:44.307Z,18.55
2022-10-07T09:52:16.590Z,18.56
2022-10-07T09:54:03.949Z,18.65
2022-10-07T09:55:43.870Z,18.70
2022-10-07T09:57:24.873Z,18.74
2022-10-07T09:59:21.154Z,18.79
2022-10-07T10:00:56.393Z,18.80
2022-10-07T10:02:31.932Z,18.79
2022-10-07T10:04:04.282Z,18.85
2022-10-07T10:05:42.202Z,18.89
2022-10-07T10:07:24.292Z,18.91
2022-10-07T10:08:57.974Z,18.92
2022-10-07T10:10:36.619Z,18.97
2022-10-07T10:12:14.112Z,19.02
2022-10-07T10:13:47.512Z,19.08
2022-10-07T10:15:39.059Z,19.11
2022-10-07T10:17:22.060Z,19.13
2022-10-07T10:18:56.228Z,19.14
2022-10-07T10:20:33.220Z,19.17
2022-10-07T10:22:05.734Z,19.20
2022-10-07T10:23:47.971Z,19.26
2022-10-07T10:25:47.623Z,19.31
2022-10-07T10:27:26.999Z,19.34
2022-10-07T10:29:08.454Z,19.40
2022-10-07T10:30:53.026Z,19.41
2022-10-07T10:33:04.623Z,19.46
2022-10-07T10:34:56.251Z,19.48
2022-10-07T10:36:30.764Z,19.49
2022-10-07T10:38:22.085Z,19.53
2022-10-07T10:40:16.841Z,19.57
2022-10-07T10:41:53.992Z,19.58
2022-10-07T10:43:26.225Z,19.57
2022-10-07T10:45:08.175Z,19.64
2022-10-07T10:46:55.183Z,19.68
2022-10-07T10:48:38.768Z,19.73
2022-10-07T10:50:28.324Z,19.75
2022-10-07T10:52:20.520Z,19.84
2022-10-07T10:55:46.843Z,19.92
2022-10-07T10:57:32.088Z,19.97
2022-10-07T10:59:09.807Z,20.04
2022-10-07T11:00:51.280Z,20.09
2022-10-07T11:02:34.110Z,20.13
2022-10-07T11:04:06.521Z,20.12
2022-10-07T11:05:40.898Z,20.16
2022-10-07T11:07:36.131Z,20.27
2022-10-07T11:09:16.606Z,20.29
2022-10-07T11:10:51.797Z,20.28
2022-10-07T11:12:28.421Z,20.30
2022-10-07T11:14:04.319Z,20.30
2022-10-07T11:15:41.113Z,20.30
2022-10-07T11:17:14.293Z,20.26
2022-10-07T11:18:49.500Z,20.33
2022-10-07T11:20:32.627Z,20.38
2022-10-07T11:22:05.560Z,20.36
2022-10-07T11:24:04.535Z,20.45
2022-10-07T11:25:37.289Z,20.44
2022-10-07T11:27:15.422Z,20.46
2022-10-07T11:28:50.427Z,20.45
2022-10-07T11:30:32.323Z,20.48
2022-10-07T11:32:23.758Z,20.48
2022-10-07T11:34:14.714Z,20.53
2022-10-07T11:35:54.665Z,20.57
2022-10-07T11:37:48.248Z,20.67
2022-10-07T11:39:21.643Z,20.66
2022-10-07T11:40:56.935Z,20.67
2022-10-07T11:42:31.763Z,20.76
2022-10-07T11:44:10.200Z,20.80
2022-10-07T11:45:50.167Z,20.76
2022-10-07T11:47:25.933Z,20.81
2022-10-07T11:49:05.785Z,20.87
2022-10-07T11:50:45.092Z,20.94
2022-10-07T11:52:27.287Z,21.00
2022-10-07T11:54:03.447Z,20.99
2022-10-07T11:55:44.654Z,20.97
2022-10-07T11:57:21.470Z,21.01
2022-10-07T11:59:05.772Z,20.98
2022-10-07T12:00:40.776Z,20.94
2022-10-07T12:02:39.072Z,21.04
2022-10-07T12:04:29.259Z,21.11
2022-10-07T12:06:10.791Z,21.11
2022-10-07T12:07:43.227Z,21.10
2022-10-07T12:09:53.119Z,21.16
2022-10-07T12:11:37.481Z,21.21
2022-10-07T12:13:09.844Z,21.17
2022-10-07T12:14:44.342Z,21.14
2022-10-07T12:16:29.142Z,21.15
2022-10-07T12:18:04.233Z,21.15
2022-10-07T12:19:36.559Z,21.10
2022-10-07T12:21:09.154Z,21.12
2022-10-07T12:22:41.587Z,21.16
2022-10-07T12:24:16.210Z,21.12
2022-10-07T12:25:56.313Z,21.12
2022-10-07T12:27:30.249Z,21.09
2022-10-07T12:29:03.820Z,20.95
2022-10-07T12:30:42.899Z,20.89
2022-10-07T12:32:47.116Z,20.86
2022-10-07T12:34:28.777Z,20.82
2022-10-07T12:36:29.867Z,20.82
2022-10-07T12:38:11.145Z,20.73
2022-10-07T12:39:43.467Z,20.77
2022-10-07T12:41:23.446Z,20.87
2022-10-07T12:43:01.452Z,20.93
2022-10-07T12:44:38.978Z,20.99
2022-10-07T12:46:15.634Z,21.04
2022-10-07T12:47:49.173Z,21.10
2022-10-07T12:49:42.191Z,21.10
2022-10-07T12:51:19.835Z,21.15
2022-10-07T12:52:56.245Z,21.13
2022-10-07T12:54:28.402Z,21.13
2022-10-07T12:56:00.920Z,21.14
2022-10-07T12:57:39.093Z,21.19
2022-10-07T12:59:48.505Z,21.22
2022-10-07T13:01:40.526Z,21.23
2022-10-07T13:03:42.074Z,21.16
2022-10-07T13:05:51.760Z,21.12
2022-10-07T13:07:55.147Z,21.13
2022-10-07T13:09:30.258Z,21.13
2022-10-07T13:11:14.367Z,21.15
2022-10-07T13:13:07.462Z,21.15
2022-10-07T13:14:49.709Z,21.20
2022-10-07T13:16:34.539Z,21.21
2022-10-07T13:18:23.152Z,21.27
2022-10-07T13:20:16.427Z,21.31
2022-10-07T13:21:51.828Z,21.29
2022-10-07T13:23:27.208Z,21.35
2022-10-07T13:25:01.933Z,21.33
2022-10-07T13:26:34.272Z,21.32
2022-10-07T13:28:07.667Z,21.35
2022-10-07T13:29:40.134Z,21.46
2022-10-07T13:31:36.099Z,21.57
2022-10-07T13:33:26.972Z,21.61
2022-10-07T14:09:58.977Z,20.71
2022-10-07T14:11:31.505Z,20.72
2022-10-07T14:13:10.561Z,20.72
2022-10-07T14:14:56.389Z,20.71
2022-10-07T14:16:28.792Z,20.60
2022-10-07T14:18:09.725Z,20.61
2022-10-07T14:19:42.047Z,20.63
2022-10-07T14:21:17.964Z,20.64
2022-10-07T14:23:28.777Z,20.64
2022-10-07T14:25:04.795Z,20.60
2022-10-07T14:26:44.095Z,20.61
2022-10-07T14:28:28.812Z,20.57
2022-10-07T14:30:01.979Z,20.48
2022-10-07T14:31:52.831Z,20.45
2022-10-07T14:33:54.500Z,20.43
2022-10-07T14:35:27.472Z,20.40
2022-10-07T14:37:08.735Z,20.41
2022-10-07T14:38:42.772Z,20.35
2022-10-07T14:40:20.158Z,20.34
2022-10-07T14:41:52.543Z,20.30
2022-10-07T14:43:32.335Z,20.31
2022-10-07T14:45:08.388Z,20.27
2022-10-07T14:46:40.727Z,20.22
2022-10-07T14:48:14.421Z,20.21
2022-10-07T14:49:46.969Z,20.15
2022-10-07T14:51:25.420Z,20.12
2022-10-07T14:52:58.586Z,20.07
2022-10-07T14:54:31.292Z,20.05
2022-10-07T14:56:04.552Z,20.02
2022-10-07T14:57:36.414Z,20.02
2022-10-07T14:59:14.713Z,20.00
2022-10-07T15:00:47.492Z,19.92
2022-10-07T15:02:20.293Z,19.90
2022-10-07T15:03:53.238Z,19.88
2022-10-07T15:05:28.611Z,19.84
2022-10-07T15:07:00.888Z,19.79
2022-10-07T15:08:33.380Z,19.76
2022-10-07T15:10:12.291Z,19.72
2022-10-07T15:11:45.212Z,19.64
2022-10-07T15:13:17.306Z,19.56
2022-10-07T15:14:49.514Z,19.48
2022-10-07T15:16:24.468Z,19.44
2022-10-07T15:17:56.787Z,19.32
2022-10-07T15:19:29.110Z,19.24
2022-10-07T15:21:01.576Z,19.15
2022-10-07T15:22:33.966Z,19.08
2022-10-07T15:24:06.616Z,19.01
2022-10-07T15:25:40.620Z,18.95
2022-10-07T15:27:13.014Z,18.85
2022-10-07T15:28:45.457Z,18.77
2022-10-07T15:30:17.718Z,18.66
2022-10-07T15:31:52.584Z,18.58
2022-10-07T15:33:24.876Z,18.46
2022-10-07T15:34:58.536Z,18.32
2022-10-07T15:36:33.008Z,18.24
2022-10-07T15:38:05.301Z,18.15
2022-10-07T15:39:39.791Z,18.05
2022-10-07T15:41:29.428Z,17.98
2022-10-07T15:43:01.773Z,17.85
2022-10-07T15:44:34.031Z,17.76
2022-10-07T15:46:06.595Z,17.67
2022-10-07T15:47:39.702Z,17.57
2022-10-07T15:49:12.119Z,17.46
2022-10-07T15:50:48.813Z,17.41
2022-10-07T15:52:21.432Z,17.33
2022-10-07T15:53:54.746Z,17.26
2022-10-07T15:55:26.883Z,17.19
2022-10-07T15:56:59.419Z,17.16
2022-10-07T15:58:31.619Z,17.14
2022-10-07T16:00:05.296Z,17.10
2022-10-07T16:01:37.861Z,17.04
2022-10-07T16:03:10.329Z,16.98
2022-10-07T16:04:43.268Z,16.95
2022-10-07T16:06:18.698Z,16.92
2022-10-07T16:07:50.855Z,16.85
2022-10-07T16:09:23.763Z,16.81
2022-10-07T16:10:56.060Z,16.70
2022-10-07T16:12:28.217Z,16.66
2022-10-07T16:14:06.740Z,16.63
2022-10-07T16:15:39.113Z,16.49
2022-10-07T16:17:11.510Z,16.34
2022-10-07T16:18:45.784Z,16.26
2022-10-07T16:20:19.108Z,16.11
2022-10-07T16:21:51.133Z,16.08
2022-10-07T16:23:23.512Z,15.97
2022-10-07T16:24:56.014Z,15.93
2022-10-07T16:26:30.742Z,15.89
2022-10-07T16:28:21.230Z,15.83
2022-10-07T16:30:11.791Z,15.81
2022-10-07T16:31:45.391Z,15.76
2022-10-07T16:33:19.049Z,15.68
2022-10-07T16:34:52.045Z,15.58
2022-10-07T16:36:25.047Z,15.50
2022-10-07T16:37:57.607Z,15.40
2022-10-07T16:39:29.933Z,15.29
2022-10-07T16:41:02.707Z,15.18
2022-10-07T16:42:35.053Z,15.10
2022-10-07T16:44:08.477Z,15.01
2022-10-07T16:45:40.650Z,14.97
2022-10-07T16:47:13.421Z,14.83
2022-10-07T16:48:47.288Z,14.73
2022-10-07T16:50:21.250Z,14.62
2022-10-07T16:51:53.459Z,14.53
2022-10-07T16:53:27.575Z,14.47
2022-10-07T16:55:00.639Z,14.42
2022-10-07T16:56:35.621Z,14.40
2022-10-07T16:58:08.028Z,14.30
2022-10-07T16:59:40.418Z,14.22
2022-10-07T17:01:15.024Z,14.16
2022-10-07T17:02:47.322Z,14.09
2022-10-07T17:04:19.834Z,14.10
2022-10-07T17:05:58.793Z,14.09
2022-10-07T17:07:31.098Z,14.04
2022-10-07T17:09:04.864Z,14.00
2022-10-07T17:10:37.524Z,13.93
2022-10-07T17:12:09.925Z,13.87
2022-10-07T17:13:42.024Z,13.80
2022-10-07T17:15:14.392Z,13.73
2022-10-07T17:16:49.355Z,13.68
2022-10-07T17:18:21.799Z,13.56
2022-10-07T17:19:54.346Z,13.51
2022-10-07T17:21:29.474Z,13.44
2022-10-07T17:23:01.938Z,13.40
2022-10-07T17:24:34.379Z,13.32
2022-10-07T17:26:09.949Z,13.27
2022-10-07T17:27:42.196Z,13.21
2022-10-07T17:29:18.523Z,13.16
2022-10-07T17:30:51.066Z,13.14
2022-10-07T17:32:27.576Z,13.12
2022-10-07T17:34:00.213Z,13.05
2022-10-07T17:35:35.604Z,13.02
2022-10-07T17:37:11.284Z,12.96
2022-10-07T17:38:45.496Z,12.95
2022-10-07T17:41:50.174Z,12.83
2022-10-07T17:43:22.504Z,12.80
2022-10-07T17:44:55.551Z,12.78
2022-10-07T17:46:29.745Z,12.79
2022-10-07T17:48:03.872Z,12.76
2022-10-07T17:49:36.673Z,12.75
2022-10-07T17:51:09.090Z,12.74
2022-10-07T17:52:42.092Z,12.72
2022-10-07T17:54:15.010Z,12.70
2022-10-07T17:55:53.092Z,12.69
2022-10-07T17:57:26.018Z,12.62
2022-10-07T17:58:58.727Z,12.55
2022-10-07T18:00:32.345Z,12.52
2022-10-07T18:02:05.683Z,12.49
2022-10-07T18:03:38.654Z,12.41
2022-10-07T18:05:11.693Z,12.38
2022-10-07T18:06:44.082Z,12.31
2022-10-07T18:08:16.299Z,12.25
2022-10-07T18:09:48.321Z,12.22
2022-10-07T18:11:20.464Z,12.17
2022-10-07T18:13:10.944Z,12.15
2022-10-07T18:16:16.134Z,12.10
2022-10-07T18:17:52.159Z,12.07
2022-10-07T18:19:25.276Z,12.02
2022-10-07T18:21:04.606Z,11.97
2022-10-07T18:22:36.843Z,11.88
2022-10-07T18:24:09.235Z,11.81
2022-10-07T18:25:41.324Z,11.74
2022-10-07T18:27:13.897Z,11.67
2022-10-07T18:28:49.463Z,11.64
2022-10-07T18:30:21.753Z,11.60
2022-10-07T18:31:54.131Z,11.58
2022-10-07T18:33:26.410Z,11.55
2022-10-07T18:34:58.488Z,11.55
2022-10-07T18:36:30.604Z,11.53
2022-10-07T18:38:02.759Z,11.54
2022-10-07T18:39:34.851Z,11.51
2022-10-07T18:41:14.739Z,11.50
2022-10-07T18:42:47.073Z,11.48
2022-10-07T18:45:59.149Z,11.46
2022-10-07T18:47:31.338Z,11.37
2022-10-07T18:49:03.624Z,11.35
2022-10-07T18:50:35.797Z,11.30
2022-10-07T18:52:08.049Z,11.30
2022-10-07T18:53:42.148Z,11.29
2022-10-07T18:55:14.239Z,11.26
2022-10-07T18:56:50.309Z,11.24
2022-10-07T18:58:22.474Z,11.18
2022-10-07T18:59:54.727Z,11.12
2022-10-07T19:01:30.521Z,11.14
2022-10-07T19:03:02.693Z,11.13
2022-10-07T19:04:35.083Z,11.12
2022-10-07T19:06:12.664Z,11.10
2022-10-07T19:07:44.970Z,11.10
2022-10-07T19:09:19.597Z,11.09
2022-10-07T19:10:51.879Z,11.06
2022-10-07T19:12:50.168Z,11.03
2022-10-07T19:14:26.174Z,10.98
2022-10-07T19:16:03.109Z,10.94
2022-10-07T19:17:35.162Z,10.88
2022-10-07T19:19:14.105Z,10.86
2022-10-07T19:20:58.390Z,10.83
2022-10-07T19:22:30.621Z,10.72
2022-10-07T19:24:03.783Z,10.71
2022-10-07T19:25:48.379Z,10.67
2022-10-07T19:27:20.643Z,10.64
2022-10-07T19:28:53.992Z,10.66
2022-10-07T19:30:26.254Z,10.67
2022-10-07T19:31:59.177Z,10.69
2022-10-07T19:33:31.686Z,10.71
2022-10-07T19:35:06.630Z,10.73
2022-10-07T19:36:40.720Z,10.69
2022-10-07T19:38:13.725Z,10.65
2022-10-07T19:39:45.995Z,10.62
2022-10-07T19:41:19.680Z,10.59
2022-10-07T19:42:52.010Z,10.54
2022-10-07T19:44:24.289Z,10.51
2022-10-07T19:46:01.857Z,10.54
2022-10-07T19:47:37.107Z,10.53
2022-10-07T19:49:10.544Z,10.50
2022-10-07T19:50:42.713Z,10.58
2022-10-07T19:52:15.129Z,10.55
2022-10-07T19:53:48.059Z,10.59
2022-10-07T19:55:20.174Z,10.61
2022-10-07T19:56:52.494Z,10.60
2022-10-07T19:58:24.974Z,10.59
2022-10-07T19:59:57.199Z,10.60
2022-10-07T20:01:32.571Z,10.62
2022-10-07T20:03:05.032Z,10.58
2022-10-07T20:04:37.163Z,10.58
2022-10-07T20:06:10.373Z,10.58
2022-10-07T20:07:42.604Z,10.57
2022-10-07T20:09:16.655Z,10.51
2022-10-07T20:10:48.736Z,10.43
2022-10-07T20:12:20.868Z,10.38
2022-10-07T20:13:54.691Z,10.32
2022-10-07T20:15:26.859Z,10.25
2022-10-07T20:16:58.924Z,10.25
2022-10-07T20:18:31.949Z,10.27
2022-10-07T20:20:04.221Z,10.25
2022-10-07T20:21:38.056Z,10.25
2022-10-07T20:23:10.313Z,10.22
2022-10-07T20:24:42.361Z,10.22
2022-10-07T20:26:19.593Z,10.28
2022-10-07T20:27:51.654Z,10.27
2022-10-07T20:29:25.187Z,10.31
2022-10-07T20:31:02.660Z,10.39
2022-10-07T20:32:35.908Z,10.42
2022-10-07T20:34:10.482Z,10.46
2022-10-07T20:35:42.540Z,10.43
2022-10-07T20:37:14.836Z,10.41
2022-10-07T20:39:05.190Z,10.39
2022-10-07T20:40:55.770Z,10.35
2022-10-07T20:42:29.866Z,10.30
2022-10-07T20:44:02.397Z,10.26
2022-10-07T20:45:54.526Z,10.24
2022-10-07T20:47:30.283Z,10.25
2022-10-07T20:49:02.309Z,10.21
2022-10-07T20:50:34.480Z,10.17
2022-10-07T20:52:17.027Z,10.17
2022-10-07T20:53:50.267Z,10.16
2022-10-07T20:55:22.406Z,10.14
2022-10-07T20:56:59.205Z,10.12
2022-10-07T20:58:37.820Z,10.14
2022-10-07T21:00:16.647Z,10.11
2022-10-07T21:01:48.838Z,10.09
2022-10-07T21:03:21.459Z,10.07
2022-10-07T21:04:53.883Z,10.05
2022-10-07T21:06:25.925Z,10.03
2022-10-07T21:07:58.146Z,9.98
2022-10-07T21:09:31.240Z,9.93
2022-10-07T21:11:05.020Z,9.91
2022-10-07T21:12:37.009Z,9.83
2022-10-07T21:14:09.992Z,9.78
2022-10-07T21:15:42.877Z,9.74
2022-10-07T21:17:15.847Z,9.75
2022-10-07T21:18:48.030Z,9.75
2022-10-07T21:20:20.948Z,9.73
2022-10-07T21:21:54.091Z,9.75
2022-10-07T21:23:26.416Z,9.70
2022-10-07T21:24:58.989Z,9.65
2022-10-07T21:26:31.350Z,9.63
2022-10-07T21:28:03.480Z,9.63
2022-10-07T21:29:40.436Z,9.66
2022-10-07T21:31:17.796Z,9.66
2022-10-07T21:32:50.434Z,9.60
2022-10-07T21:34:22.757Z,9.56
2022-10-07T21:36:01.661Z,9.55
2022-10-07T21:37:33.762Z,9.44
2022-10-07T21:39:06.325Z,9.41
2022-10-07T21:40:38.396Z,9.37
2022-10-07T21:42:10.610Z,9.36
2022-10-07T21:43:44.274Z,9.34
2022-10-07T21:45:16.244Z,9.30
2022-10-07T21:46:48.317Z,9.30
2022-10-07T21:48:20.710Z,9.32
2022-10-07T21:49:52.736Z,9.31